Time;durP1;ratioP1;P1;durP2;ratioP2;P2;SDS_P1;SDS_P2;PMS_P1;PMS_P2;Temp;Humidity;BMP_temperature;BMP_pressure;BME280_temperature;BME280_humidity;BME280_pressure;Samples;Min_cycle;Max_cycle;Signal;HPM_P1;HPM_P2
2024/01/05 00:00:37;;;;;;;9.90;8.00;;;;;;;3.46;91.65;99814.47;7388107;19;20424;-62
2024/01/05 00:03:04;;;;;;;10.57;8.13;;;;;;;3.46;91.67;99813.63;7391089;19;20371;-62
2024/01/05 00:05:31;;;;;;;11.50;9.23;;;;;;;3.45;91.51;99809.34;7383887;19;20385;-62
2024/01/05 00:07:58;;;;;;;10.82;9.10;;;;;;;3.45;91.47;99798.88;7390843;19;20348;-61
2024/01/05 00:10:25;;;;;;;12.07;9.40;;;;;;;3.44;91.85;99791.97;7389185;19;20372;-62
2024/01/05 00:12:52;;;;;;;13.07;10.50;;;;;;;3.43;91.69;99790.34;7390158;19;20349;-62
2024/01/05 00:15:18;;;;;;;12.32;10.15;;;;;;;3.43;91.90;99790.34;7390146;19;20352;-62
2024/01/05 00:17:46;;;;;;;11.25;9.88;;;;;;;3.43;91.90;99785.91;7390401;19;20353;-61
2024/01/05 00:20:13;;;;;;;12.32;10.15;;;;;;;3.44;91.89;99784.94;7389108;19;20868;-62
2024/01/05 00:22:40;;;;;;;12.45;10.55;;;;;;;3.45;92.01;99777.91;7390019;19;20344;-62
2024/01/05 00:25:07;;;;;;;11.57;9.90;;;;;;;3.45;91.79;99777.91;7389766;19;20352;-63
2024/01/05 00:27:34;;;;;;;10.45;9.35;;;;;;;3.45;91.99;99770.03;7385448;19;20364;-62
2024/01/05 00:30:03;;;;;;;11.98;9.13;;;;;;;3.44;92.17;99771.00;7382676;19;20345;-62
2024/01/05 00:32:30;;;;;;;10.38;8.82;;;;;;;3.45;91.99;99764.78;7386541;19;20400;-62
2024/01/05 00:34:57;;;;;;;11.10;9.32;;;;;;;3.43;92.50;99759.69;7385899;19;20364;-64
2024/01/05 00:37:24;;;;;;;11.75;9.25;;;;;;;3.49;92.44;99762.69;7388648;19;20876;-62
2024/01/05 00:39:50;;;;;;;12.40;9.32;;;;;;;3.50;92.21;99751.22;7392300;19;20328;-62
2024/01/05 00:42:17;;;;;;;12.50;9.03;;;;;;;3.52;92.17;99757.94;7392880;19;20380;-62
2024/01/05 00:44:43;;;;;;;9.25;8.05;;;;;;;3.53;92.12;99758.75;7389850;19;20344;-62
2024/01/05 00:47:10;;;;;;;10.35;8.05;;;;;;;3.52;91.96;99757.94;7391670;19;20344;-63
2024/01/05 00:49:37;;;;;;;9.98;7.90;;;;;;;3.55;92.34;99751.56;7392570;19;20361;-62
2024/01/05 00:52:04;;;;;;;10.18;8.10;;;;;;;3.57;92.09;99749.63;7390936;19;20764;-62
2024/01/05 00:54:31;;;;;;;10.90;8.60;;;;;;;3.59;92.37;99748.50;7391934;19;20385;-62
2024/01/05 00:56:58;;;;;;;12.43;9.15;;;;;;;3.60;92.15;99749.31;7389454;19;20919;-62
2024/01/05 00:59:24;;;;;;;10.05;8.27;;;;;;;3.60;92.10;99750.16;7391710;19;20871;-66
2024/01/05 01:01:51;;;;;;;9.73;8.15;;;;;;;3.61;92.24;99749.19;7391405;19;20356;-62
2024/01/05 01:04:18;;;;;;;11.35;8.85;;;;;;;3.61;92.22;99743.09;7389985;19;20344;-62
2024/01/05 01:06:44;;;;;;;11.35;8.95;;;;;;;3.63;92.24;99744.63;7391222;19;20344;-62
2024/01/05 01:09:12;;;;;;;11.38;9.25;;;;;;;3.65;92.24;99747.88;7389407;19;20360;-62
2024/01/05 01:11:39;;;;;;;11.65;9.70;;;;;;;3.64;92.38;99741.00;7391920;19;20371;-62
2024/01/05 01:14:05;;;;;;;15.07;10.60;;;;;;;3.60;92.50;99739.66;7387198;19;20372;-62
2024/01/05 01:16:32;;;;;;;12.70;10.63;;;;;;;3.61;92.56;99741.31;7390649;19;20340;-62
2024/01/05 01:18:59;;;;;;;15.18;10.10;;;;;;;3.61;93.04;99729.97;7391566;19;20397;-62
2024/01/05 01:21:26;;;;;;;14.65;10.88;;;;;;;3.61;93.12;99730.81;7389662;19;20447;-62
2024/01/05 01:23:53;;;;;;;15.57;10.93;;;;;;;3.62;93.35;99721.16;7397072;19;20428;-62
2024/01/05 01:26:20;;;;;;;15.10;10.95;;;;;;;3.64;93.38;99725.25;7398700;19;20892;-63
2024/01/05 01:28:46;;;;;;;16.52;11.75;;;;;;;3.67;93.68;99730.19;7399583;19;20875;-63
2024/01/05 01:31:13;;;;;;;16.42;11.57;;;;;;;3.69;93.53;99730.03;7396360;19;20369;-63
2024/01/05 01:33:40;;;;;;;15.00;11.48;;;;;;;3.70;93.53;99723.00;7399026;19;20352;-62
2024/01/05 01:36:07;;;;;;;15.27;11.23;;;;;;;3.71;93.73;99725.47;7396035;19;20694;-62
2024/01/05 01:38:34;;;;;;;17.50;12.23;;;;;;;3.71;93.54;99724.66;7395206;19;20329;-62
2024/01/05 01:41:00;;;;;;;15.48;11.13;;;;;;;3.71;93.55;99714.16;7396343;19;20356;-62
2024/01/05 01:43:28;;;;;;;17.63;11.83;;;;;;;3.74;93.58;99713.84;7398508;19;20492;-63
2024/01/05 01:46:00;;;;;;;14.52;11.10;;;;;;;3.74;93.64;99714.69;7397983;19;20381;-63
2024/01/05 01:48:29;;;;;;;15.25;11.40;;;;;;;3.73;93.56;99706.97;7397759;19;20372;-62
2024/01/05 01:50:56;;;;;;;13.67;10.93;;;;;;;3.72;93.39;99708.75;7396159;19;20361;-62
2024/01/05 01:53:26;;;;;;;14.27;11.30;;;;;;;3.72;93.48;99706.16;7398143;19;20355;-63
2024/01/05 01:55:53;;;;;;;14.70;10.85;;;;;;;3.74;93.56;99711.22;7398930;19;20353;-63
2024/01/05 01:58:21;;;;;;;14.48;10.95;;;;;;;3.74;93.32;99703.34;7393659;19;20348;-63
2024/01/05 02:00:49;;;;;;;12.23;10.48;;;;;;;3.72;93.29;99700.06;7396556;19;20340;-64
2024/01/05 02:03:17;;;;;;;12.82;10.40;;;;;;;3.70;93.38;99694.13;7395248;19;20332;-63
2024/01/05 02:05:46;;;;;;;14.43;11.25;;;;;;;3.73;93.58;99693.84;7395638;19;20762;-63
2024/01/05 02:08:13;;;;;;;12.35;10.02;;;;;;;3.74;93.74;99683.19;7396057;19;20352;-64
2024/01/05 02:10:40;;;;;;;14.40;10.33;;;;;;;3.75;93.61;99679.59;7394301;19;20397;-63
2024/01/05 02:13:08;;;;;;;12.32;10.75;;;;;;;3.76;93.86;99675.16;7395106;19;20371;-63
2024/01/05 02:15:34;;;;;;;13.70;10.17;;;;;;;3.77;93.67;99676.81;7396898;19;20882;-63
2024/01/05 02:18:09;;;;;;;14.70;10.65;;;;;;;3.77;93.60;99669.75;7393615;19;20393;-64
2024/01/05 02:20:36;;;;;;;17.30;10.95;;;;;;;3.80;93.71;99671.25;7391280;19;20356;-64
2024/01/05 02:23:08;;;;;;;14.48;10.48;;;;;;;3.81;93.59;99659.78;7393399;19;20397;-63
2024/01/05 02:25:34;;;;;;;12.82;10.43;;;;;;;3.83;93.76;99655.22;7391813;19;20919;-62
2024/01/05 02:28:01;;;;;;;12.20;10.40;;;;;;;3.82;93.94;99653.53;7394507;19;20364;-63
2024/01/05 02:30:28;;;;;;;13.63;10.18;;;;;;;3.83;93.88;99642.09;7395754;19;20332;-62
2024/01/05 02:32:54;;;;;;;14.88;10.35;;;;;;;3.83;94.19;99639.47;7394852;19;20743;-61
2024/01/05 02:35:21;;;;;;;14.38;10.55;;;;;;;3.82;94.16;99635.19;7394047;19;20364;-62
2024/01/05 02:37:48;;;;;;;16.93;10.93;;;;;;;3.81;94.16;99631.75;7393857;19;20429;-62
2024/01/05 02:40:15;;;;;;;14.93;11.15;;;;;;;3.83;94.33;99626.34;7394452;19;20340;-63
2024/01/05 02:42:41;;;;;;;13.73;10.50;;;;;;;3.83;94.49;99614.06;7394290;19;20851;-62
2024/01/05 02:45:08;;;;;;;15.88;11.20;;;;;;;3.81;94.65;99615.19;7396524;19;20369;-62
2024/01/05 02:47:35;;;;;;;14.43;11.00;;;;;;;3.80;94.67;99614.34;7390611;19;20370;-62
2024/01/05 02:50:02;;;;;;;15.68;11.68;;;;;;;3.79;94.91;99606.66;7393255;19;20359;-62
2024/01/05 02:52:29;;;;;;;16.08;12.27;;;;;;;3.80;94.96;99603.03;7396298;19;20887;-62
2024/01/05 02:54:55;;;;;;;15.60;11.45;;;;;;;3.80;95.16;99603.03;7395208;19;20501;-62
2024/01/05 02:57:22;;;;;;;14.68;11.30;;;;;;;3.80;95.29;99603.84;7395822;19;20357;-63
2024/01/05 02:59:49;;;;;;;14.00;11.27;;;;;;;3.79;95.18;99594.34;7390113;19;20373;-63
2024/01/05 03:02:16;;;;;;;16.23;12.00;;;;;;;3.78;95.42;99589.25;7392935;19;20377;-62
2024/01/05 03:04:43;;;;;;;15.60;11.30;;;;;;;3.78;95.41;99587.47;7390301;19;20884;-63
2024/01/05 03:07:10;;;;;;;16.52;12.27;;;;;;;3.78;95.74;99589.25;7391047;19;20828;-62
2024/01/05 03:09:37;;;;;;;16.67;11.85;;;;;;;3.79;95.62;99588.28;7391082;19;20340;-62
2024/01/05 03:12:05;;;;;;;15.33;11.90;;;;;;;3.79;95.59;99585.69;7394641;19;20393;-63
2024/01/05 03:14:32;;;;;;;16.15;11.90;;;;;;;3.79;95.83;99576.00;7393120;19;20844;-62
2024/01/05 03:16:58;;;;;;;16.00;11.87;;;;;;;3.79;95.82;99573.38;7395334;19;20352;-62
2024/01/05 03:19:25;;;;;;;16.27;11.25;;;;;;;3.80;95.73;99568.94;7395636;19;20412;-62
2024/01/05 03:21:52;;;;;;;16.75;11.90;;;;;;;3.81;95.63;99575.84;7394818;19;20364;-61
2024/01/05 03:24:18;;;;;;;14.83;11.23;;;;;;;3.82;95.71;99580.09;7391967;19;20469;-62
2024/01/05 03:26:45;;;;;;;14.77;11.07;;;;;;;3.80;95.56;99572.38;7393595;19;20349;-61
2024/01/05 03:29:13;;;;;;;16.25;12.10;;;;;;;3.79;95.61;99585.69;7392064;19;20357;-61
2024/01/05 03:31:42;;;;;;;16.80;12.30;;;;;;;3.80;95.82;99585.50;7394233;19;20352;-60
2024/01/05 03:34:11;;;;;;;15.90;11.83;;;;;;;3.83;96.02;99581.75;7391847;19;20336;-61
2024/01/05 03:36:38;;;;;;;15.45;11.68;;;;;;;3.87;95.85;99585.72;7393596;19;20364;-61
2024/01/05 03:39:08;;;;;;;14.80;11.25;;;;;;;3.86;95.73;99576.19;7389077;19;20344;-61
2024/01/05 03:41:34;;;;;;;15.63;12.37;;;;;;;3.87;95.89;99567.34;7393512;19;20439;-59
2024/01/05 03:44:01;;;;;;;14.15;11.55;;;;;;;3.86;95.81;99563.06;7393367;19;20356;-61
2024/01/05 03:46:28;;;;;;;14.55;11.25;;;;;;;3.88;95.78;99555.84;7393557;19;20365;-61
2024/01/05 03:48:54;;;;;;;15.45;12.07;;;;;;;3.86;95.77;99550.75;7390371;19;20376;-61
2024/01/05 03:51:21;;;;;;;15.93;11.93;;;;;;;3.85;95.98;99541.25;7389006;19;20348;-61
2024/01/05 03:53:48;;;;;;;14.60;11.65;;;;;;;3.82;96.11;99538.13;7390702;19;20352;-61
2024/01/05 03:56:16;;;;;;;16.60;12.30;;;;;;;3.81;95.96;99534.69;7392541;19;20369;-62
2024/01/05 03:58:43;;;;;;;16.52;12.52;;;;;;;3.78;96.50;99521.91;7393326;19;20357;-61
2024/01/05 04:01:10;;;;;;;15.20;12.20;;;;;;;3.80;96.33;99524.34;7390502;19;20892;-62
2024/01/05 04:03:37;;;;;;;15.57;12.60;;;;;;;3.79;96.57;99528.78;7390796;19;20782;-62
2024/01/05 04:06:04;;;;;;;16.23;12.90;;;;;;;3.80;96.63;99519.91;7391059;19;20726;-62
2024/01/05 04:08:31;;;;;;;19.02;13.70;;;;;;;3.82;96.53;99520.56;7389421;19;20320;-63
2024/01/05 04:10:58;;;;;;;16.52;13.23;;;;;;;3.81;96.61;99512.88;7390246;19;20344;-62
2024/01/05 04:13:24;;;;;;;15.50;12.98;;;;;;;3.81;96.61;99510.25;7392922;19;20762;-62
2024/01/05 04:15:51;;;;;;;17.10;13.57;;;;;;;3.84;96.85;99507.31;7394469;19;20373;-62
2024/01/05 04:18:18;;;;;;;16.33;13.70;;;;;;;3.82;96.66;99506.66;7389322;19;20396;-62
2024/01/05 04:20:45;;;;;;;19.23;14.25;;;;;;;3.80;96.89;99498.94;7389848;19;20353;-62
2024/01/05 04:23:12;;;;;;;16.50;13.60;;;;;;;3.81;97.00;99490.09;7389796;19;20354;-63
2024/01/05 04:25:38;;;;;;;17.67;14.18;;;;;;;3.82;96.88;99496.16;7389259;19;20364;-62
2024/01/05 04:28:05;;;;;;;17.02;13.93;;;;;;;3.79;97.04;99492.06;7388764;19;20340;-62
2024/01/05 04:30:32;;;;;;;17.23;14.65;;;;;;;3.79;97.12;99496.50;7394234;19;20381;-62
2024/01/05 04:32:58;;;;;;;15.32;13.70;;;;;;;3.79;97.16;99496.50;7389719;19;20353;-62
2024/01/05 04:35:25;;;;;;;16.23;13.75;;;;;;;3.80;97.24;99488.44;7391872;19;20354;-62
2024/01/05 04:37:53;;;;;;;16.00;14.18;;;;;;;3.81;97.37;99484.03;7387804;19;20881;-62
2024/01/05 04:40:20;;;;;;;17.35;14.48;;;;;;;3.81;97.20;99478.78;7389749;19;20380;-62
2024/01/05 04:42:47;;;;;;;15.63;13.90;;;;;;;3.81;97.31;99478.78;7393233;19;20396;-61
2024/01/05 04:45:14;;;;;;;17.35;14.50;;;;;;;3.81;97.25;99484.03;7391957;19;20355;-63
2024/01/05 04:47:42;;;;;;;18.00;14.60;;;;;;;3.78;97.62;99471.22;7390394;19;20368;-62
2024/01/05 04:50:10;;;;;;;17.05;15.25;;;;;;;3.79;97.61;99468.44;7390603;19;20402;-61
2024/01/05 04:52:36;;;;;;;17.15;15.15;;;;;;;3.79;97.71;99459.75;7392525;19;20353;-62
2024/01/05 04:55:04;;;;;;;16.70;14.43;;;;;;;3.78;97.73;99460.72;7391041;19;20364;-63
2024/01/05 04:57:31;;;;;;;16.23;13.00;;;;;;;3.78;97.57;99460.72;7390763;19;20352;-62
2024/01/05 04:59:57;;;;;;;15.95;13.90;;;;;;;3.76;97.83;99460.06;7397537;19;20531;-62
2024/01/05 05:02:24;;;;;;;18.25;14.48;;;;;;;3.74;97.94;99455.00;7398534;19;20377;-62
2024/01/05 05:04:51;;;;;;;16.58;14.15;;;;;;;3.75;98.15;99458.44;7399402;19;20361;-62
2024/01/05 05:07:17;;;;;;;18.38;14.38;;;;;;;3.75;98.05;99455.81;7397896;19;20360;-62
2024/01/05 05:09:44;;;;;;;17.48;14.40;;;;;;;3.74;98.04;99451.53;7398608;19;20719;-63
2024/01/05 05:12:11;;;;;;;18.13;14.77;;;;;;;3.74;98.02;99451.53;7400234;19;20440;-62
2024/01/05 05:14:37;;;;;;;18.05;14.70;;;;;;;3.74;98.18;99451.53;7400651;19;20356;-63
2024/01/05 05:17:04;;;;;;;18.05;15.07;;;;;;;3.76;98.23;99444.34;7397672;19;20373;-63
2024/01/05 05:19:32;;;;;;;17.17;15.18;;;;;;;3.76;98.62;99449.56;7395456;19;20358;-63
2024/01/05 05:21:59;;;;;;;18.67;15.63;;;;;;;3.75;98.68;99448.75;7399333;19;20381;-62
2024/01/05 05:24:25;;;;;;;16.67;14.55;;;;;;;3.73;98.83;99448.09;7396688;19;20449;-63
2024/01/05 05:26:52;;;;;;;17.52;14.50;;;;;;;3.74;98.63;99447.13;7397564;19;20372;-63
2024/01/05 05:29:19;;;;;;;17.55;15.38;;;;;;;3.76;98.91;99439.09;7397816;19;20360;-63
2024/01/05 05:31:46;;;;;;;18.38;15.18;;;;;;;3.79;98.69;99449.28;7397955;19;20376;-63
2024/01/05 05:34:12;;;;;;;16.85;14.80;;;;;;;3.76;98.85;99450.44;7386182;19;20382;-63
2024/01/05 05:36:39;;;;;;;18.90;15.25;;;;;;;3.75;99.18;99454.00;7396092;19;20390;-63
2024/01/05 05:39:06;;;;;;;17.35;15.23;;;;;;;3.77;99.04;99446.81;7395617;19;20746;-63
2024/01/05 05:41:32;;;;;;;19.20;15.50;;;;;;;3.79;99.01;99451.91;7396125;19;20369;-62
2024/01/05 05:43:59;;;;;;;19.10;15.63;;;;;;;3.81;99.27;99447.31;7396405;19;20368;-62
2024/01/05 05:46:26;;;;;;;17.38;15.48;;;;;;;3.84;99.12;99447.78;7397796;19;20880;-63
2024/01/05 05:48:53;;;;;;;18.67;15.80;;;;;;;3.84;99.34;99452.22;7396796;19;20352;-62
2024/01/05 05:51:20;;;;;;;18.40;15.23;;;;;;;3.87;99.12;99451.91;7397080;19;20428;-63
2024/01/05 05:53:46;;;;;;;18.80;15.38;;;;;;;3.91;99.04;99458.47;7397685;19;20413;-63
2024/01/05 05:56:13;;;;;;;16.80;14.68;;;;;;;3.94;99.05;99452.06;7396507;19;20352;-63
2024/01/05 05:58:40;;;;;;;17.63;14.98;;;;;;;3.96;99.12;99440.44;7396524;19;20377;-63
2024/01/05 06:01:06;;;;;;;18.63;15.50;;;;;;;3.98;98.95;99448.16;7397358;19;20920;-63
2024/01/05 06:03:33;;;;;;;17.25;15.05;;;;;;;3.99;98.82;99442.72;7397008;19;20687;-63
2024/01/05 06:06:00;;;;;;;17.25;14.73;;;;;;;4.00;99.10;99443.56;7395569;19;20435;-63
2024/01/05 06:08:26;;;;;;;16.67;14.65;;;;;;;4.00;98.84;99436.50;7397005;19;20356;-63
2024/01/05 06:10:53;;;;;;;17.08;14.55;;;;;;;3.98;99.22;99433.22;7396465;19;21185;-63
2024/01/05 06:13:20;;;;;;;16.05;14.05;;;;;;;3.98;99.17;99441.09;7397275;19;20685;-63
2024/01/05 06:15:46;;;;;;;17.58;14.93;;;;;;;4.00;99.36;99436.50;7396014;19;20705;-63
2024/01/05 06:18:13;;;;;;;16.70;14.90;;;;;;;4.00;99.59;99438.31;7393407;19;20348;-63
2024/01/05 06:20:40;;;;;;;17.35;14.82;;;;;;;4.00;99.45;99433.88;7394981;19;20364;-63
2024/01/05 06:23:06;;;;;;;18.10;14.63;;;;;;;4.00;99.61;99439.13;7397185;19;20377;-63
2024/01/05 06:25:33;;;;;;;16.65;14.60;;;;;;;4.03;99.73;99443.22;7393960;19;20368;-63
2024/01/05 06:28:00;;;;;;;18.23;14.65;;;;;;;4.05;99.70;99447.31;7393746;19;20868;-63
2024/01/05 06:30:27;;;;;;;17.67;14.80;;;;;;;4.07;99.62;99445.34;7395206;19;20356;-63
2024/01/05 06:32:53;;;;;;;17.08;14.57;;;;;;;4.09;99.58;99448.63;7397248;19;20332;-64
2024/01/05 06:35:20;;;;;;;17.63;15.23;;;;;;;4.14;99.80;99457.81;7393808;19;20709;-64
2024/01/05 06:37:47;;;;;;;17.42;14.60;;;;;;;4.14;99.67;99453.38;7396445;19;20369;-64
2024/01/05 06:40:14;;;;;;;17.02;14.52;;;;;;;4.17;99.66;99457.50;7393213;19;20404;-64
2024/01/05 06:42:41;;;;;;;18.03;15.07;;;;;;;4.18;99.84;99448.63;7396358;19;20452;-64
2024/01/05 06:45:08;;;;;;;18.45;14.65;;;;;;;4.18;99.81;99443.38;7392166;19;20344;-63
2024/01/05 06:47:35;;;;;;;17.05;14.88;;;;;;;4.22;99.72;99434.19;7390475;19;20356;-63
2024/01/05 06:50:02;;;;;;;17.42;15.13;;;;;;;4.24;99.92;99432.22;7389738;19;20352;-63
2024/01/05 06:52:31;;;;;;;18.17;15.15;;;;;;;4.28;99.79;99415.16;7391589;19;20751;-63
2024/01/05 06:54:59;;;;;;;17.48;14.70;;;;;;;4.29;99.87;99414.16;7390330;19;20381;-63
2024/01/05 06:57:28;;;;;;;17.25;14.50;;;;;;;4.29;99.99;99414.16;7395197;19;20340;-63
2024/01/05 06:59:55;;;;;;;17.73;15.05;;;;;;;4.33;100.00;99414.66;7394089;19;20343;-64
2024/01/05 07:02:21;;;;;;;16.55;14.30;;;;;;;4.32;99.97;99413.84;7393508;19;20340;-64
2024/01/05 07:04:48;;;;;;;17.15;14.40;;;;;;;4.33;99.92;99419.91;7391998;19;20349;-63
2024/01/05 07:07:15;;;;;;;16.58;14.23;;;;;;;4.34;99.82;99417.13;7392239;19;20337;-63
2024/01/05 07:09:43;;;;;;;16.48;14.18;;;;;;;4.37;100.00;99406.28;7391331;19;20347;-63
2024/01/05 07:12:09;;;;;;;16.85;13.98;;;;;;;4.40;99.86;99413.84;7392907;19;20814;-63
2024/01/05 07:14:36;;;;;;;15.32;12.85;;;;;;;4.37;100.00;99411.53;7395690;19;20404;-63
2024/01/05 07:17:05;;;;;;;15.17;12.63;;;;;;;4.39;100.00;99414.00;7396014;19;20368;-63
2024/01/05 07:19:32;;;;;;;14.82;12.68;;;;;;;4.42;100.00;99409.25;7391232;19;20723;-64
2024/01/05 07:21:59;;;;;;;14.70;12.75;;;;;;;4.42;100.00;99406.63;7391327;19;20378;-63
2024/01/05 07:24:25;;;;;;;14.90;12.20;;;;;;;4.45;100.00;99403.66;7392426;19;20470;-64
2024/01/05 07:26:52;;;;;;;15.88;12.18;;;;;;;4.46;99.86;99405.31;7395215;19;20364;-64
2024/01/05 07:29:19;;;;;;;15.93;13.02;;;;;;;4.49;100.00;99404.97;7393450;19;20394;-63
2024/01/05 07:31:45;;;;;;;15.50;12.80;;;;;;;4.51;100.00;99398.72;7395354;19;20333;-64
2024/01/05 07:34:12;;;;;;;15.95;13.07;;;;;;;4.51;99.95;99399.53;7394505;19;20332;-63
2024/01/05 07:36:42;;;;;;;16.70;14.05;;;;;;;4.55;100.00;99392.13;7393683;19;20368;-64
2024/01/05 07:39:11;;;;;;;15.45;13.55;;;;;;;4.57;100.00;99388.38;7385708;19;20747;-64
2024/01/05 07:41:38;;;;;;;15.63;13.25;;;;;;;4.58;99.84;99381.31;7391664;19;20763;-64
2024/01/05 07:44:05;;;;;;;16.05;13.73;;;;;;;4.59;99.72;99382.94;7390779;19;20944;-63
2024/01/05 07:46:32;;;;;;;15.45;13.52;;;;;;;4.59;99.60;99382.94;7391371;19;20931;-64
2024/01/05 07:48:59;;;;;;;16.17;12.98;;;;;;;4.59;99.49;99375.06;7389581;19;20352;-64
2024/01/05 07:51:26;;;;;;;15.10;12.63;;;;;;;4.57;99.59;99379.66;7392717;19;20409;-63
2024/01/05 07:53:53;;;;;;;14.80;12.60;;;;;;;4.57;99.64;99384.91;7388912;19;20690;-64
2024/01/05 07:56:19;;;;;;;13.93;12.15;;;;;;;4.58;99.32;99382.13;7391841;19;20337;-63
2024/01/05 07:58:46;;;;;;;15.50;12.67;;;;;;;4.58;99.49;99376.06;7382097;19;20399;-64
2024/01/05 08:01:17;;;;;;;13.52;11.75;;;;;;;4.60;99.69;99374.06;7386011;19;20781;-64
2024/01/05 08:03:44;;;;;;;14.77;11.48;;;;;;;4.61;99.51;99368.66;7385175;19;20381;-64
2024/01/05 08:06:19;;;;;;;13.48;11.80;;;;;;;4.62;99.32;99377.34;7384541;19;20365;-64
2024/01/05 08:08:47;;;;;;;13.85;11.73;;;;;;;4.62;99.33;99361.59;7388911;19;20653;-63
2024/01/05 08:11:14;;;;;;;14.82;11.45;;;;;;;4.64;99.68;99364.88;7390153;19;20687;-64
2024/01/05 08:13:43;;;;;;;13.18;11.27;;;;;;;4.65;99.53;99353.38;7389355;19;20897;-64
2024/01/05 08:16:10;;;;;;;12.68;10.85;;;;;;;4.68;99.38;99360.94;7388769;19;20848;-63
2024/01/05 08:18:37;;;;;;;13.80;11.30;;;;;;;4.69;99.49;99352.03;7389789;19;20899;-64
2024/01/05 08:21:04;;;;;;;12.10;10.30;;;;;;;4.72;99.28;99350.88;7387151;19;20389;-64
2024/01/05 08:23:33;;;;;;;12.07;10.57;;;;;;;4.73;99.43;99352.53;7389278;19;20389;-64
2024/01/05 08:26:03;;;;;;;13.07;11.60;;;;;;;4.73;99.33;99348.09;7391488;19;20348;-63
2024/01/05 08:28:30;;;;;;;13.40;11.10;;;;;;;4.76;99.28;99355.66;7393950;19;20671;-63
2024/01/05 08:30:58;;;;;;;12.48;10.75;;;;;;;4.78;99.41;99360.72;7388740;19;20373;-63
2024/01/05 08:33:25;;;;;;;13.73;11.48;;;;;;;4.82;99.26;99351.50;7392965;19;20328;-63
2024/01/05 08:35:52;;;;;;;11.65;10.15;;;;;;;4.85;98.96;99364.31;7390905;19;20357;-63
2024/01/05 08:38:18;;;;;;;12.38;10.40;;;;;;;4.86;98.73;99361.50;7392955;19;20364;-63
2024/01/05 08:40:45;;;;;;;13.05;11.00;;;;;;;4.87;98.78;99360.50;7389648;19;20398;-63
2024/01/05 08:43:12;;;;;;;13.13;11.73;;;;;;;4.90;98.97;99373.31;7390393;19;20715;-63
2024/01/05 08:45:39;;;;;;;13.07;11.68;;;;;;;4.93;99.01;99376.56;7390162;19;20360;-63
2024/01/05 08:48:06;;;;;;;12.55;11.25;;;;;;;4.95;98.60;99371.97;7387860;19;20366;-63
2024/01/05 08:50:34;;;;;;;12.48;10.60;;;;;;;4.96;98.79;99373.63;7390306;19;20368;-63
2024/01/05 08:53:01;;;;;;;11.90;10.32;;;;;;;4.98;98.65;99376.91;7392767;19;20333;-63
2024/01/05 08:55:28;;;;;;;11.65;9.95;;;;;;;4.97;98.65;99383.13;7393562;19;20366;-63
2024/01/05 08:57:55;;;;;;;11.05;9.90;;;;;;;4.98;98.59;99382.97;7386501;19;20348;-63
2024/01/05 09:00:22;;;;;;;12.60;10.00;;;;;;;5.01;98.25;99379.19;7390322;19;20333;-63
2024/01/05 09:02:49;;;;;;;10.38;8.90;;;;;;;5.03;98.56;99374.56;7387529;19;20990;-63
2024/01/05 09:05:15;;;;;;;11.80;9.90;;;;;;;5.07;98.38;99391.63;7388616;19;20360;-63
2024/01/05 09:07:42;;;;;;;10.50;9.40;;;;;;;5.08;98.16;99398.53;7388072;19;20665;-63
2024/01/05 09:10:09;;;;;;;10.90;9.40;;;;;;;5.08;98.01;99398.53;7384732;19;20753;-61
2024/01/05 09:12:37;;;;;;;10.98;9.02;;;;;;;5.08;98.07;99394.09;7393100;19;20872;-62
2024/01/05 09:15:05;;;;;;;10.45;9.10;;;;;;;5.06;98.10;99390.81;7388778;19;20416;-62
2024/01/05 09:17:31;;;;;;;10.68;9.15;;;;;;;5.10;98.05;99388.69;7386864;19;20336;-62
2024/01/05 09:19:58;;;;;;;10.10;9.02;;;;;;;5.11;98.29;99393.75;7386901;19;20361;-62
2024/01/05 09:22:25;;;;;;;9.85;8.70;;;;;;;5.10;97.99;99393.94;7388135;19;20879;-62
2024/01/05 09:24:52;;;;;;;10.65;8.88;;;;;;;5.12;98.06;99397.19;7387343;19;20360;-61
2024/01/05 09:27:18;;;;;;;11.68;8.80;;;;;;;5.14;97.99;99399.66;7388111;19;20808;-62
2024/01/05 09:29:45;;;;;;;10.00;8.98;;;;;;;5.17;98.16;99397.50;7390169;19;20340;-63
2024/01/05 09:32:12;;;;;;;10.23;9.10;;;;;;;5.21;97.99;99401.44;7387660;19;20872;-62
2024/01/05 09:34:41;;;;;;;10.43;8.73;;;;;;;5.23;98.33;99399.44;7387936;19;20348;-63
2024/01/05 09:37:10;;;;;;;11.20;8.95;;;;;;;5.28;98.33;99398.94;7388110;19;20355;-62
2024/01/05 09:39:36;;;;;;;9.98;8.95;;;;;;;5.31;98.17;99388.91;7387801;19;20856;-62
2024/01/05 09:42:03;;;;;;;10.30;8.48;;;;;;;5.35;97.90;99388.53;7387369;19;20369;-62
2024/01/05 09:44:31;;;;;;;10.47;8.73;;;;;;;5.40;98.07;99386.19;7393471;19;20344;-62
2024/01/05 09:46:58;;;;;;;10.68;8.65;;;;;;;5.45;98.34;99394.41;7394923;19;20360;-62
2024/01/05 09:49:25;;;;;;;9.48;8.43;;;;;;;5.52;98.19;99392.69;7392079;19;20328;-62
2024/01/05 09:51:53;;;;;;;9.63;7.60;;;;;;;5.57;97.71;99386.91;7393600;19;20349;-62
2024/01/05 09:54:20;;;;;;;8.32;7.43;;;;;;;5.62;98.08;99384.59;7395817;19;20368;-62
2024/01/05 09:56:47;;;;;;;7.68;6.88;;;;;;;5.66;97.68;99373.53;7385062;19;20370;-62
2024/01/05 09:59:17;;;;;;;8.40;7.18;;;;;;;5.66;97.39;99381.44;7391051;19;20411;-62
2024/01/05 10:01:48;;;;;;;7.93;6.88;;;;;;;5.66;97.36;99381.44;7389374;19;20912;-62
2024/01/05 10:04:15;;;;;;;8.00;6.88;;;;;;;5.69;97.26;99367.09;7393222;19;20363;-62
2024/01/05 10:06:42;;;;;;;7.35;6.57;;;;;;;5.70;97.23;99368.75;7394177;19;20430;-62
2024/01/05 10:09:09;;;;;;;6.90;6.20;;;;;;;5.73;97.33;99377.09;7394723;19;20369;-62
2024/01/05 10:11:45;;;;;;;7.03;6.13;;;;;;;5.77;97.47;99376.75;7393658;19;20710;-62
2024/01/05 10:14:13;;;;;;;7.95;6.50;;;;;;;5.82;97.19;99369.13;7392963;19;20364;-62
2024/01/05 10:16:40;;;;;;;6.85;5.95;;;;;;;5.86;97.06;99375.69;7394526;19;20348;-62
2024/01/05 10:19:17;;;;;;;7.40;5.97;;;;;;;5.85;96.90;99363.53;7394777;19;20321;-62
2024/01/05 10:21:46;;;;;;;6.10;5.43;;;;;;;5.83;96.80;99366.34;7389446;19;20384;-62
2024/01/05 10:24:14;;;;;;;6.18;5.47;;;;;;;5.84;96.58;99362.69;7393418;19;20420;-62
2024/01/05 10:26:41;;;;;;;6.80;5.60;;;;;;;5.84;96.32;99357.44;7393474;19;20864;-61
2024/01/05 10:29:13;;;;;;;6.25;5.57;;;;;;;5.87;96.54;99354.47;7395100;19;20360;-61
2024/01/05 10:31:40;;;;;;;6.15;5.55;;;;;;;5.90;96.66;99350.66;7391526;19;20348;-61
2024/01/05 10:34:08;;;;;;;5.97;5.38;;;;;;;5.96;96.75;99351.81;7393805;19;20735;-60
2024/01/05 10:36:35;;;;;;;5.88;5.28;;;;;;;5.99;96.40;99344.34;7394215;19;20864;-62
2024/01/05 10:39:03;;;;;;;6.55;5.43;;;;;;;6.02;96.17;99337.94;7393980;19;20359;-62
2024/01/05 10:41:29;;;;;;;6.70;5.60;;;;;;;6.04;96.10;99334.13;7390321;19;20344;-62
2024/01/05 10:43:58;;;;;;;6.55;5.70;;;;;;;6.11;95.97;99335.03;7394143;19;20352;-62
2024/01/05 10:46:25;;;;;;;7.00;6.30;;;;;;;6.12;95.67;99312.97;7392981;19;20678;-62
2024/01/05 10:48:53;;;;;;;7.68;5.93;;;;;;;6.19;95.92;99312.25;7393430;19;20320;-62
2024/01/05 10:51:22;;;;;;;6.97;6.07;;;;;;;6.23;95.65;99314.34;7392668;19;20675;-62
2024/01/05 10:53:50;;;;;;;7.65;6.85;;;;;;;6.25;95.67;99314.97;7391174;19;20432;-62
2024/01/05 10:56:19;;;;;;;7.13;6.35;;;;;;;6.28;95.37;99305.91;7395156;19;20782;-62
2024/01/05 10:58:52;;;;;;;7.68;6.95;;;;;;;6.27;95.08;99320.88;7393784;19;20357;-62
2024/01/05 11:01:19;;;;;;;7.07;6.25;;;;;;;6.29;95.08;99321.53;7389291;19;20340;-62
2024/01/05 11:03:50;;;;;;;7.45;6.75;;;;;;;6.29;95.10;99323.31;7392067;19;20959;-62
2024/01/05 11:06:17;;;;;;;7.63;6.75;;;;;;;6.30;95.03;99303.91;7393210;19;20321;-62
2024/01/05 11:09:12;;;;;;;7.53;6.82;;;;;;;6.29;95.25;99297.00;7393091;19;20358;-62
2024/01/05 11:12:01;;;;;;;7.82;7.03;;;;;;;6.30;95.22;99293.38;7392077;19;20943;-62
2024/01/05 11:14:46;;;;;;;8.32;7.28;;;;;;;6.30;94.92;99291.53;7391894;19;20316;-62
2024/01/05 11:17:25;;;;;;;8.50;7.60;;;;;;;6.28;94.67;99295.38;7392013;19;20384;-63
2024/01/05 11:20:25;;;;;;;9.25;7.90;;;;;;;6.34;95.06;99292.00;7390898;19;20768;-62
2024/01/05 11:22:53;;;;;;;9.27;8.00;;;;;;;6.41;95.22;99290.28;7391728;19;20904;-62
2024/01/05 11:25:20;;;;;;;9.75;8.50;;;;;;;6.46;94.79;99298.47;7390004;19;20472;-62
2024/01/05 11:27:47;;;;;;;9.90;8.90;;;;;;;6.53;94.75;99288.81;7390505;19;20320;-63
2024/01/05 11:30:14;;;;;;;9.95;8.63;;;;;;;6.74;95.67;99274.06;7394673;19;20420;-62